createdAt,value
2023-03-16T00:00:16.648Z,4.77
2023-03-16T00:02:43.650Z,4.76
2023-03-16T00:05:13.059Z,4.73
2023-03-16T00:07:39.800Z,4.72
2023-03-16T00:10:07.107Z,4.73
2023-03-16T00:12:34.719Z,4.74
2023-03-16T00:15:02.346Z,4.78
2023-03-16T00:17:28.885Z,4.77
2023-03-16T00:20:07.086Z,4.76
2023-03-16T00:22:34.307Z,4.69
2023-03-16T00:25:01.772Z,4.73
2023-03-16T00:27:28.633Z,4.65
2023-03-16T00:29:58.003Z,4.64
2023-03-16T00:32:27.068Z,4.63
2023-03-16T00:34:54.162Z,4.68
2023-03-16T00:37:23.480Z,4.62
2023-03-16T00:39:51.399Z,4.60
2023-03-16T00:42:20.393Z,4.53
2023-03-16T00:44:47.376Z,4.55
2023-03-16T00:47:14.527Z,4.57
2023-03-16T00:49:44.375Z,4.61
2023-03-16T00:52:15.722Z,4.65
2023-03-16T00:54:43.635Z,4.65
2023-03-16T00:57:13.064Z,4.68
2023-03-16T00:59:39.792Z,4.66
2023-03-16T01:02:07.904Z,4.70
2023-03-16T01:04:36.027Z,4.67
2023-03-16T01:07:04.177Z,4.71
2023-03-16T01:09:31.544Z,4.72
2023-03-16T01:11:58.101Z,4.74
2023-03-16T01:14:24.594Z,4.76
2023-03-16T01:16:51.947Z,4.79
2023-03-16T01:19:19.005Z,4.77
2023-03-16T01:21:45.558Z,4.78
2023-03-16T01:24:12.035Z,4.77
2023-03-16T01:26:38.531Z,4.79
2023-03-16T01:29:05.384Z,4.77
2023-03-16T01:31:31.965Z,4.73
2023-03-16T01:33:58.524Z,4.64
2023-03-16T01:36:25.395Z,4.69
2023-03-16T01:38:51.922Z,4.71
2023-03-16T01:41:18.493Z,4.65
2023-03-16T01:43:45.053Z,4.67
2023-03-16T01:46:22.455Z,4.60
2023-03-16T01:48:56.472Z,4.63
2023-03-16T01:51:38.141Z,4.62
2023-03-16T01:54:22.039Z,4.63
2023-03-16T01:57:07.435Z,4.63
2023-03-16T01:59:39.809Z,4.66
2023-03-16T02:04:51.179Z,4.62
2023-03-16T02:07:21.284Z,4.64
2023-03-16T02:09:52.415Z,4.59
2023-03-16T02:12:20.517Z,4.64
2023-03-16T02:14:48.760Z,4.64
2023-03-16T02:17:17.816Z,4.63
2023-03-16T02:20:22.966Z,4.68
2023-03-16T02:22:54.494Z,4.66
2023-03-16T02:25:24.387Z,4.68
2023-03-16T02:28:16.177Z,4.64
2023-03-16T02:30:42.906Z,4.69
2023-03-16T02:33:10.327Z,4.70
2023-03-16T02:35:36.915Z,4.68
2023-03-16T02:38:04.074Z,4.64
2023-03-16T02:40:33.055Z,4.64
2023-03-16T02:43:11.254Z,4.57
2023-03-16T02:45:51.498Z,4.64
2023-03-16T02:48:32.326Z,4.63
2023-03-16T02:50:59.053Z,4.65
2023-03-16T02:53:25.571Z,4.63
2023-03-16T02:55:52.085Z,4.68
2023-03-16T02:58:18.783Z,4.64
2023-03-16T03:00:46.515Z,4.65
2023-03-16T03:03:14.376Z,4.67
2023-03-16T03:05:41.031Z,4.65
2023-03-16T03:08:08.090Z,4.66
2023-03-16T03:10:34.686Z,4.63
2023-03-16T03:13:01.205Z,4.63
2023-03-16T03:15:27.716Z,4.68
2023-03-16T03:17:54.262Z,4.70
2023-03-16T03:20:21.660Z,4.62
2023-03-16T03:22:50.089Z,4.62
2023-03-16T03:25:18.371Z,4.62
2023-03-16T03:27:46.508Z,4.57
2023-03-16T03:30:16.111Z,4.63
2023-03-16T03:32:44.349Z,4.67
2023-03-16T03:35:12.904Z,4.65
2023-03-16T03:37:41.115Z,4.63
2023-03-16T03:40:10.502Z,4.61
2023-03-16T03:42:37.073Z,4.57
2023-03-16T03:45:04.101Z,4.56
2023-03-16T03:47:30.871Z,4.55
2023-03-16T03:49:57.362Z,4.62
2023-03-16T03:52:23.931Z,4.60
2023-03-16T03:54:50.412Z,4.60
2023-03-16T03:57:17.345Z,4.59
2023-03-16T03:59:44.311Z,4.58
2023-03-16T04:02:12.100Z,4.56
2023-03-16T04:04:39.541Z,4.55
2023-03-16T04:07:06.288Z,4.53
2023-03-16T04:09:34.107Z,4.57
2023-03-16T04:12:01.904Z,4.54
2023-03-16T04:14:29.201Z,4.57
2023-03-16T04:16:56.604Z,4.59
2023-03-16T04:19:25.171Z,4.61
2023-03-16T04:21:52.514Z,4.65
2023-03-16T04:24:19.160Z,4.59
2023-03-16T04:26:45.944Z,4.57
2023-03-16T04:29:14.542Z,4.57
2023-03-16T04:31:42.504Z,4.59
2023-03-16T04:34:09.468Z,4.57
2023-03-16T04:36:35.963Z,4.59
2023-03-16T04:39:02.509Z,4.64
2023-03-16T04:41:29.016Z,4.67
2023-03-16T04:43:57.671Z,4.69
2023-03-16T04:46:26.704Z,4.69
2023-03-16T04:48:54.108Z,4.63
2023-03-16T04:51:21.592Z,4.61
2023-03-16T04:53:48.084Z,4.63
2023-03-16T04:56:19.821Z,4.63
2023-03-16T04:58:48.322Z,4.63
2023-03-16T05:01:15.353Z,4.62
2023-03-16T05:03:42.930Z,4.56
2023-03-16T05:06:11.939Z,4.60
2023-03-16T05:08:38.780Z,4.59
2023-03-16T05:11:05.589Z,4.60
2023-03-16T05:13:32.461Z,4.60
2023-03-16T05:15:59.084Z,4.60
2023-03-16T05:18:25.966Z,4.61
2023-03-16T05:20:54.371Z,4.55
2023-03-16T05:23:22.061Z,4.55
2023-03-16T05:25:49.834Z,4.52
2023-03-16T05:28:17.093Z,4.51
2023-03-16T05:30:45.360Z,4.50
2023-03-16T05:33:12.161Z,4.48
2023-03-16T05:35:38.915Z,4.51
2023-03-16T05:38:05.501Z,4.50
2023-03-16T05:40:33.154Z,4.53
2023-03-16T05:43:00.650Z,4.52
2023-03-16T05:45:28.879Z,4.53
2023-03-16T05:47:55.914Z,4.52
2023-03-16T05:50:22.733Z,4.57
2023-03-16T05:52:49.507Z,4.56
2023-03-16T05:55:17.858Z,4.57
2023-03-16T05:57:44.585Z,4.58
2023-03-16T06:00:18.575Z,4.61
2023-03-16T06:02:48.300Z,4.63
2023-03-16T06:05:16.497Z,4.64
2023-03-16T06:07:43.199Z,4.69
2023-03-16T06:10:11.422Z,4.69
2023-03-16T06:12:38.100Z,4.69
2023-03-16T06:15:08.959Z,4.74
2023-03-16T06:17:36.687Z,4.74
2023-03-16T06:20:11.327Z,4.78
2023-03-16T06:22:42.376Z,4.75
2023-03-16T06:25:12.140Z,4.79
2023-03-16T06:27:39.819Z,4.76
2023-03-16T06:30:09.685Z,4.80
2023-03-16T06:32:36.411Z,4.78
2023-03-16T06:35:03.618Z,4.80
2023-03-16T06:37:31.266Z,4.82
2023-03-16T06:39:57.834Z,4.86
2023-03-16T06:42:24.274Z,4.89
2023-03-16T06:44:51.260Z,4.90
2023-03-16T06:47:17.913Z,4.91
2023-03-16T06:49:44.387Z,5.01
2023-03-16T06:52:13.730Z,5.08
2023-03-16T06:54:41.594Z,5.13
2023-03-16T06:57:08.837Z,5.13
2023-03-16T06:59:35.421Z,5.19
2023-03-16T07:02:02.070Z,5.25
2023-03-16T07:04:28.709Z,5.34
2023-03-16T07:06:55.225Z,5.40
2023-03-16T07:09:22.067Z,5.35
2023-03-16T07:11:48.573Z,5.43
2023-03-16T07:14:15.158Z,5.48
2023-03-16T07:16:41.657Z,5.50
2023-03-16T07:19:08.226Z,5.44
2023-03-16T07:21:39.981Z,5.41
2023-03-16T07:24:09.272Z,5.45
2023-03-16T07:26:35.984Z,5.60
2023-03-16T07:29:05.090Z,5.66
2023-03-16T07:31:32.582Z,5.81
2023-03-16T07:33:59.222Z,5.94
2023-03-16T07:36:26.047Z,5.89
2023-03-16T07:38:52.544Z,5.97
2023-03-16T07:41:19.068Z,5.88
2023-03-16T07:43:45.520Z,5.94
2023-03-16T07:46:15.577Z,5.90
2023-03-16T07:48:44.226Z,5.84
2023-03-16T07:51:11.970Z,5.80
2023-03-16T07:53:39.701Z,5.81
2023-03-16T07:56:06.734Z,5.90
2023-03-16T07:58:34.186Z,5.87
2023-03-16T08:01:01.531Z,5.94
2023-03-16T08:03:29.573Z,6.02
2023-03-16T08:05:56.444Z,6.13
2023-03-16T08:08:23.536Z,6.18
2023-03-16T08:10:52.738Z,6.18
2023-03-16T08:13:22.432Z,6.30
2023-03-16T08:15:58.891Z,6.24
2023-03-16T08:18:26.613Z,6.32
2023-03-16T08:20:53.786Z,6.27
2023-03-16T08:23:21.272Z,6.24
2023-03-16T08:25:51.734Z,6.20
2023-03-16T08:28:21.609Z,6.12
2023-03-16T08:30:51.066Z,6.17
2023-03-16T08:33:18.074Z,6.17
2023-03-16T08:35:45.215Z,6.14
2023-03-16T08:38:13.397Z,6.09
2023-03-16T08:40:42.201Z,6.04
2023-03-16T08:43:08.828Z,5.91
2023-03-16T08:45:35.386Z,6.00
2023-03-16T08:48:01.938Z,6.01
2023-03-16T08:50:28.596Z,6.00
2023-03-16T08:52:55.307Z,5.97
2023-03-16T08:55:21.869Z,6.04
2023-03-16T08:57:48.796Z,6.08
2023-03-16T09:00:15.656Z,6.09
2023-03-16T09:02:43.069Z,6.12
2023-03-16T09:05:11.549Z,6.10
2023-03-16T09:07:39.440Z,6.18
2023-03-16T09:10:13.351Z,6.25
2023-03-16T09:12:40.898Z,6.26
2023-03-16T09:15:08.946Z,6.22
2023-03-16T09:17:36.311Z,6.33
2023-03-16T09:20:19.524Z,6.43
2023-03-16T09:22:48.293Z,6.51
2023-03-16T09:25:15.604Z,6.49
2023-03-16T09:27:42.739Z,6.55
2023-03-16T09:30:10.820Z,6.50
2023-03-16T09:32:37.591Z,6.51
2023-03-16T09:35:06.446Z,6.63
2023-03-16T09:37:44.626Z,6.71
2023-03-16T09:40:23.122Z,6.82
2023-03-16T09:42:59.575Z,6.81
2023-03-16T09:45:29.468Z,6.94
2023-03-16T09:48:01.076Z,7.01
2023-03-16T09:50:47.190Z,7.01
2023-03-16T09:53:25.416Z,7.03
2023-03-16T09:55:58.085Z,7.07
2023-03-16T09:58:24.821Z,7.11
2023-03-16T10:01:19.519Z,7.25
2023-03-16T10:04:32.455Z,7.25
2023-03-16T10:07:20.147Z,7.35
2023-03-16T10:10:12.862Z,7.29
2023-03-16T10:12:44.132Z,7.26
2023-03-16T10:15:21.103Z,7.18
2023-03-16T10:18:13.349Z,7.15
2023-03-16T10:20:41.981Z,7.20
2023-03-16T10:23:17.673Z,7.22
2023-03-16T10:25:48.877Z,7.25
2023-03-16T10:28:19.834Z,7.22
2023-03-16T10:30:48.610Z,7.28
2023-03-16T10:33:26.773Z,7.29
2023-03-16T10:36:12.547Z,7.33
2023-03-16T10:38:47.047Z,7.42
2023-03-16T10:41:22.737Z,7.50
2023-03-16T10:43:51.684Z,7.65
2023-03-16T10:46:18.899Z,7.71
2023-03-16T10:49:01.442Z,7.73
2023-03-16T10:51:34.866Z,7.76
2023-03-16T10:54:10.913Z,7.88
2023-03-16T10:56:37.815Z,8.00
2023-03-16T10:59:29.584Z,8.07
2023-03-16T11:01:57.528Z,8.13
2023-03-16T11:04:24.373Z,8.26
2023-03-16T11:06:56.266Z,8.28
2023-03-16T11:09:26.210Z,8.27
2023-03-16T11:11:52.933Z,8.26
2023-03-16T11:14:23.346Z,8.31
2023-03-16T11:16:59.597Z,8.36
2023-03-16T11:20:00.356Z,8.52
2023-03-16T11:22:30.580Z,8.62
2023-03-16T11:25:02.996Z,8.68
2023-03-16T11:27:49.510Z,8.79
2023-03-16T11:30:35.853Z,8.89
2023-03-16T11:33:02.575Z,8.97
2023-03-16T11:35:40.143Z,8.99
2023-03-16T11:38:17.638Z,9.14
2023-03-16T11:40:56.076Z,9.26
2023-03-16T11:43:41.908Z,9.33
2023-03-16T11:46:16.895Z,9.40
2023-03-16T11:49:01.824Z,9.41
2023-03-16T11:51:53.023Z,9.37
2023-03-16T11:54:44.124Z,9.44
2023-03-16T11:57:19.634Z,9.54
2023-03-16T12:00:14.985Z,9.61
2023-03-16T12:02:59.727Z,9.68
2023-03-16T12:05:39.906Z,9.81
2023-03-16T12:08:29.122Z,9.87
2023-03-16T12:11:04.751Z,9.93
2023-03-16T12:13:40.122Z,9.87
2023-03-16T12:16:15.757Z,9.86
2023-03-16T12:18:53.191Z,9.79
2023-03-16T12:21:25.633Z,9.74
2023-03-16T12:23:55.419Z,9.78
2023-03-16T12:26:26.970Z,9.85
2023-03-16T12:28:55.339Z,9.84
2023-03-16T12:31:36.806Z,9.81
2023-03-16T12:34:13.879Z,9.76
2023-03-16T12:37:10.387Z,9.86
2023-03-16T12:40:24.635Z,9.84
2023-03-16T12:43:04.023Z,9.88
2023-03-16T12:45:50.784Z,9.85
2023-03-16T12:48:38.811Z,9.91
2023-03-16T12:51:05.699Z,9.87
2023-03-16T12:53:51.738Z,9.88
2023-03-16T12:56:21.451Z,9.93
2023-03-16T12:58:56.020Z,9.92
2023-03-16T13:01:28.463Z,9.96
2023-03-16T13:04:15.747Z,9.98
2023-03-16T13:06:45.523Z,10.06
2023-03-16T13:09:18.399Z,10.08
2023-03-16T13:11:53.247Z,10.11
2023-03-16T13:14:43.312Z,10.13
2023-03-16T13:17:15.966Z,10.19
2023-03-16T13:19:45.536Z,10.29
2023-03-16T13:22:32.460Z,10.38
2023-03-16T13:25:29.026Z,10.41
2023-03-16T13:27:59.124Z,10.38
2023-03-16T13:30:29.771Z,10.38
2023-03-16T13:33:01.694Z,10.39
2023-03-16T13:35:30.444Z,10.46
2023-03-16T13:38:05.876Z,10.40
2023-03-16T13:40:33.201Z,10.43
2023-03-16T13:43:01.803Z,10.41
2023-03-16T13:45:32.995Z,10.45
2023-03-16T13:48:02.129Z,10.47
2023-03-16T13:50:33.107Z,10.51
2023-03-16T13:53:04.529Z,10.61
2023-03-16T13:55:38.574Z,10.63
2023-03-16T13:58:05.535Z,10.68
2023-03-16T14:00:35.417Z,10.72
2023-03-16T14:05:33.423Z,10.79
2023-03-16T14:08:01.210Z,10.87
2023-03-16T14:10:33.392Z,10.91
2023-03-16T14:13:34.109Z,10.96
2023-03-16T14:16:20.065Z,10.99
2023-03-16T14:18:57.681Z,11.04
2023-03-16T14:21:27.305Z,11.09
2023-03-16T14:23:58.361Z,11.08
2023-03-16T14:26:25.443Z,11.06
2023-03-16T14:29:05.190Z,11.04
2023-03-16T14:31:38.372Z,10.99
2023-03-16T14:34:19.994Z,11.03
2023-03-16T14:36:46.494Z,11.03
2023-03-16T14:39:19.418Z,11.04
2023-03-16T14:41:50.914Z,11.06
2023-03-16T14:44:26.495Z,11.08
2023-03-16T14:47:00.128Z,11.05
2023-03-16T14:49:33.180Z,11.09
2023-03-16T14:52:06.338Z,11.07
2023-03-16T14:54:32.960Z,11.06
2023-03-16T14:57:02.887Z,11.08
2023-03-16T14:59:29.919Z,11.07
2023-03-16T15:01:57.259Z,11.10
2023-03-16T15:04:34.122Z,11.04
2023-03-16T15:07:02.289Z,11.10
2023-03-16T15:09:43.428Z,11.11
2023-03-16T15:12:17.375Z,11.09
2023-03-16T15:15:02.891Z,11.09
2023-03-16T15:17:29.644Z,11.08
2023-03-16T15:19:56.399Z,11.06
2023-03-16T15:22:38.152Z,11.07
2023-03-16T15:25:26.290Z,11.08
2023-03-16T15:27:54.336Z,11.07
2023-03-16T15:30:26.716Z,11.06
2023-03-16T15:32:53.644Z,10.98
2023-03-16T15:35:20.817Z,10.96
2023-03-16T15:37:47.925Z,10.94
2023-03-16T15:40:25.499Z,10.96
2023-03-16T15:42:53.783Z,10.95
2023-03-16T15:45:22.569Z,10.97
2023-03-16T15:47:51.241Z,10.96
2023-03-16T15:50:20.911Z,10.95
2023-03-16T15:52:51.977Z,10.96
2023-03-16T15:55:24.454Z,10.98
2023-03-16T15:57:58.781Z,10.99
2023-03-16T16:00:31.041Z,10.94
2023-03-16T16:02:58.744Z,10.92
2023-03-16T16:05:26.542Z,10.92
2023-03-16T16:07:54.280Z,10.91
2023-03-16T16:10:21.362Z,10.91
2023-03-16T16:12:53.210Z,10.91
2023-03-16T16:15:34.224Z,10.86
2023-03-16T16:18:20.521Z,10.86
2023-03-16T16:20:48.795Z,10.83
2023-03-16T16:23:18.165Z,10.81
2023-03-16T16:25:45.259Z,10.75
2023-03-16T16:28:15.908Z,10.75
2023-03-16T16:30:45.490Z,10.71
2023-03-16T16:33:25.480Z,10.69
2023-03-16T16:35:54.014Z,10.63
2023-03-16T16:38:21.152Z,10.57
2023-03-16T16:40:48.420Z,10.57
2023-03-16T16:43:35.183Z,10.58
2023-03-16T16:46:04.898Z,10.54
2023-03-16T16:48:38.231Z,10.48
2023-03-16T16:51:07.250Z,10.45
2023-03-16T16:53:33.966Z,10.45
2023-03-16T16:56:01.318Z,10.46
2023-03-16T16:58:28.024Z,10.43
2023-03-16T17:00:58.990Z,10.39
2023-03-16T17:03:28.429Z,10.40
2023-03-16T17:05:57.922Z,10.38
2023-03-16T17:08:25.970Z,10.36
2023-03-16T17:10:54.921Z,10.32
2023-03-16T17:13:28.773Z,10.32
2023-03-16T17:15:55.957Z,10.28
2023-03-16T17:18:22.607Z,10.24
2023-03-16T17:20:50.795Z,10.21
2023-03-16T17:23:26.324Z,10.17
2023-03-16T17:25:55.204Z,10.14
2023-03-16T17:28:22.530Z,10.09
2023-03-16T17:30:49.595Z,10.07
2023-03-16T17:33:19.376Z,10.01
2023-03-16T17:35:47.902Z,10.02
2023-03-16T17:38:25.223Z,9.96
2023-03-16T17:40:53.421Z,9.94
2023-03-16T17:43:22.806Z,9.90
2023-03-16T17:45:51.902Z,9.86
2023-03-16T17:48:21.358Z,9.84
2023-03-16T17:50:49.042Z,9.84
2023-03-16T17:53:17.405Z,9.81
2023-03-16T17:55:46.848Z,9.78
2023-03-16T17:58:26.865Z,9.77
2023-03-16T18:00:57.387Z,9.72
2023-03-16T18:03:30.877Z,9.68
2023-03-16T18:05:57.548Z,9.71
2023-03-16T18:08:29.412Z,9.69
2023-03-16T18:11:07.847Z,9.69
2023-03-16T18:13:37.387Z,9.65
2023-03-16T18:16:05.902Z,9.65
2023-03-16T18:18:42.910Z,9.63
2023-03-16T18:21:21.869Z,9.63
2023-03-16T18:23:49.484Z,9.62
2023-03-16T18:26:16.461Z,9.60
2023-03-16T18:28:43.889Z,9.55
2023-03-16T18:31:21.408Z,9.57
2023-03-16T18:33:55.643Z,9.56
2023-03-16T18:36:31.091Z,9.54
2023-03-16T18:39:16.321Z,9.56
2023-03-16T18:41:43.426Z,9.54
2023-03-16T18:44:21.963Z,9.55
2023-03-16T18:46:50.116Z,9.52
2023-03-16T18:49:26.127Z,9.50
2023-03-16T18:51:55.365Z,9.47
2023-03-16T18:54:29.145Z,9.44
2023-03-16T18:56:58.631Z,9.46
2023-03-16T18:59:27.131Z,9.44
2023-03-16T19:01:54.771Z,9.46
2023-03-16T19:04:32.943Z,9.43
2023-03-16T19:06:59.749Z,9.39
2023-03-16T19:09:31.911Z,9.41
2023-03-16T19:11:59.544Z,9.39
2023-03-16T19:14:30.870Z,9.38
2023-03-16T19:16:58.258Z,9.38
2023-03-16T19:19:25.739Z,9.38
2023-03-16T19:21:55.244Z,9.39
2023-03-16T19:24:31.793Z,9.36
2023-03-16T19:26:59.102Z,9.36
2023-03-16T19:29:34.637Z,9.34
2023-03-16T19:32:06.359Z,9.32
2023-03-16T19:34:33.043Z,9.30
2023-03-16T19:36:59.725Z,9.27
2023-03-16T19:39:27.449Z,9.27
2023-03-16T19:41:59.041Z,9.26
2023-03-16T19:44:28.612Z,9.22
2023-03-16T19:46:56.173Z,9.20
2023-03-16T19:49:26.176Z,9.19
2023-03-16T19:51:54.752Z,9.18
2023-03-16T19:54:32.105Z,9.17
2023-03-16T19:57:03.470Z,9.13
2023-03-16T19:59:34.530Z,9.16
2023-03-16T20:02:01.470Z,9.13
2023-03-16T20:04:28.941Z,9.12
2023-03-16T20:06:55.628Z,9.11
2023-03-16T20:09:23.073Z,9.10
2023-03-16T20:11:50.239Z,9.11
2023-03-16T20:14:27.359Z,9.12
2023-03-16T20:16:54.097Z,9.11
2023-03-16T20:19:22.365Z,9.08
2023-03-16T20:21:49.495Z,9.09
2023-03-16T20:24:19.078Z,9.10
2023-03-16T20:26:48.746Z,9.11
2023-03-16T20:29:29.951Z,9.06
2023-03-16T20:31:57.178Z,9.05
2023-03-16T20:34:29.196Z,9.05
2023-03-16T20:36:56.187Z,9.05
2023-03-16T20:39:22.811Z,9.05
2023-03-16T20:41:50.570Z,9.03
2023-03-16T20:44:23.653Z,9.02
2023-03-16T20:46:50.538Z,9.02
2023-03-16T20:49:22.879Z,9.03
2023-03-16T20:51:50.077Z,9.02
2023-03-16T20:54:16.893Z,8.99
2023-03-16T20:56:43.681Z,9.02
2023-03-16T20:59:40.314Z,8.98
2023-03-16T21:02:22.379Z,8.95
2023-03-16T21:04:48.941Z,8.97
2023-03-16T21:07:15.450Z,8.95
2023-03-16T21:09:49.709Z,8.94
2023-03-16T21:12:29.192Z,8.94
2023-03-16T21:14:56.904Z,8.94
2023-03-16T21:17:29.072Z,8.96
2023-03-16T21:19:55.835Z,8.94
2023-03-16T21:22:28.762Z,8.93
2023-03-16T21:24:55.804Z,8.90
2023-03-16T21:27:26.775Z,8.91
2023-03-16T21:29:55.352Z,8.87
2023-03-16T21:32:25.958Z,8.88
2023-03-16T21:34:52.926Z,8.88
2023-03-16T21:37:23.931Z,8.89
2023-03-16T21:39:54.645Z,8.90
2023-03-16T21:42:21.378Z,8.92
2023-03-16T21:44:48.342Z,8.91
2023-03-16T21:47:25.170Z,8.91
2023-03-16T21:49:54.241Z,8.93
2023-03-16T21:52:26.835Z,8.93
2023-03-16T21:54:54.602Z,8.93
2023-03-16T21:57:21.656Z,8.90
2023-03-16T21:59:48.809Z,8.88
2023-03-16T22:02:24.477Z,8.87
2023-03-16T22:04:52.018Z,8.89
2023-03-16T22:07:19.551Z,8.89
2023-03-16T22:09:46.058Z,8.90
2023-03-16T22:12:13.728Z,8.89
2023-03-16T22:14:40.728Z,8.86
2023-03-16T22:17:16.595Z,8.85
2023-03-16T22:19:43.097Z,8.90
2023-03-16T22:22:15.971Z,8.92
2023-03-16T22:24:42.688Z,8.92
2023-03-16T22:27:22.676Z,8.90
2023-03-16T22:29:51.253Z,8.92
2023-03-16T22:32:21.074Z,8.92
2023-03-16T22:34:57.004Z,8.92
2023-03-16T22:37:28.614Z,8.92
2023-03-16T22:39:57.381Z,8.90
2023-03-16T22:42:39.251Z,8.92
2023-03-16T22:45:22.464Z,8.97
2023-03-16T22:47:49.566Z,8.96
2023-03-16T22:50:18.011Z,8.96
2023-03-16T22:52:47.430Z,8.94
2023-03-16T22:55:21.121Z,8.96
2023-03-16T22:57:51.187Z,8.96
2023-03-16T23:00:21.389Z,8.93
2023-03-16T23:02:51.086Z,8.94
2023-03-16T23:05:24.503Z,8.95
2023-03-16T23:07:51.962Z,8.96
2023-03-16T23:10:21.693Z,8.99
2023-03-16T23:12:49.471Z,8.97
2023-03-16T23:15:21.892Z,8.95
2023-03-16T23:17:49.141Z,8.99
2023-03-16T23:20:20.664Z,8.98
2023-03-16T23:22:47.732Z,8.97
2023-03-16T23:25:14.633Z,8.95
2023-03-16T23:27:41.875Z,8.96
2023-03-16T23:30:17.178Z,8.99
2023-03-16T23:32:44.892Z,8.99
2023-03-16T23:35:17.946Z,9.01
2023-03-16T23:37:44.847Z,9.03
2023-03-16T23:40:11.956Z,9.04
2023-03-16T23:42:39.249Z,9.04
2023-03-16T23:45:11.971Z,9.03
2023-03-16T23:47:38.569Z,9.05
2023-03-16T23:50:06.210Z,9.08
2023-03-16T23:52:32.712Z,9.07
2023-03-16T23:55:00.643Z,9.08
2023-03-16T23:57:27.260Z,9.08
2023-03-16T23:59:53.728Z,9.08
